createdAt,value
2024-05-09T00:00:40.432Z,87.95
2024-05-09T00:02:41.831Z,87.65
2024-05-09T00:03:43.350Z,87.65
2024-05-09T00:12:55.945Z,87.60
2024-05-09T00:13:57.406Z,87.51
2024-05-09T00:23:12.413Z,86.75
2024-05-09T00:28:17.788Z,86.54
2024-05-09T00:29:19.175Z,86.44
2024-05-09T00:30:27.995Z,86.54
2024-05-09T00:39:34.174Z,86.34
2024-05-09T00:40:39.694Z,85.93
2024-05-09T00:41:37.473Z,85.52
2024-05-09T00:42:38.911Z,85.42
2024-05-09T00:43:40.255Z,85.72
2024-05-09T00:44:41.643Z,86.03
2024-05-09T00:45:43.400Z,86.03
2024-05-09T00:46:45.035Z,85.93
2024-05-09T00:47:47.029Z,85.83
2024-05-09T00:48:48.505Z,85.62
2024-05-09T00:49:49.930Z,85.83
2024-05-09T00:50:51.398Z,85.93
2024-05-09T00:54:56.858Z,85.72
2024-05-09T00:55:58.245Z,85.72
2024-05-09T00:56:59.609Z,85.72
2024-05-09T03:27:48.380Z,93.56
2024-05-09T03:28:49.788Z,93.67
2024-05-09T03:29:51.106Z,93.67
2024-05-09T03:30:52.486Z,93.46
2024-05-09T03:31:53.976Z,93.26
2024-05-09T03:32:55.411Z,93.15
2024-05-09T03:33:56.858Z,92.95
2024-05-09T03:34:58.301Z,92.74
2024-05-09T03:35:59.681Z,92.64
2024-05-09T03:37:01.082Z,92.54
2024-05-09T03:38:02.489Z,92.44
2024-05-09T03:39:03.825Z,92.54
2024-05-09T03:40:09.268Z,92.34
2024-05-09T03:41:07.051Z,92.44
2024-05-09T03:42:08.492Z,92.54
2024-05-09T03:43:09.815Z,92.54
2024-05-09T03:44:11.239Z,92.34
2024-05-09T03:45:12.577Z,92.23
2024-05-09T03:46:13.934Z,92.34
2024-05-09T03:47:15.371Z,92.34
2024-05-09T03:48:17.213Z,92.34
2024-05-09T03:49:18.810Z,92.34
2024-05-09T03:50:26.343Z,92.23
2024-05-09T03:51:22.078Z,92.34
2024-05-09T03:52:23.484Z,92.44
2024-05-09T03:53:24.881Z,92.44
2024-05-09T03:54:26.244Z,92.54
2024-05-09T03:55:27.599Z,92.69
2024-05-09T03:56:29.010Z,92.79
2024-05-09T03:57:30.389Z,92.79
2024-05-09T03:58:31.733Z,92.69
2024-05-09T03:59:33.151Z,92.48
2024-05-09T04:00:38.400Z,92.48
2024-05-09T04:01:36.453Z,92.38
2024-05-09T04:02:37.865Z,92.34
2024-05-09T04:03:39.343Z,92.23
2024-05-09T04:04:40.778Z,92.13
2024-05-09T04:05:43.220Z,92.18
2024-05-09T04:06:44.050Z,92.38
2024-05-09T04:07:45.497Z,92.38
2024-05-09T04:08:46.889Z,92.48
2024-05-09T04:09:48.235Z,92.38
2024-05-09T04:10:49.610Z,92.38
2024-05-09T04:11:51.084Z,92.48
2024-05-09T04:12:52.481Z,92.38
2024-05-09T04:13:53.875Z,92.38
2024-05-09T04:14:55.221Z,92.27
2024-05-09T04:15:56.575Z,92.18
2024-05-09T04:16:57.948Z,92.03
2024-05-09T04:17:59.818Z,92.07
2024-05-09T04:19:01.520Z,91.97
2024-05-09T04:20:03.230Z,91.82
2024-05-09T04:21:04.760Z,91.66
2024-05-09T04:22:06.215Z,91.87
2024-05-09T04:23:08.671Z,91.77
2024-05-09T04:24:09.568Z,91.62
2024-05-09T04:25:10.939Z,91.41
2024-05-09T04:26:12.358Z,91.00
2024-05-09T04:27:13.699Z,90.76
2024-05-09T04:28:15.068Z,90.35
2024-05-09T04:29:16.502Z,89.73
2024-05-09T04:30:25.779Z,89.39
2024-05-09T04:31:19.695Z,88.83
2024-05-09T04:32:21.254Z,87.83
2024-05-09T04:33:23.036Z,86.16
2024-05-09T04:34:24.461Z,84.55
2024-05-09T04:35:25.943Z,83.04
2024-05-09T04:36:27.254Z,81.23
2024-05-09T04:37:28.619Z,80.28
2024-05-09T04:38:30.068Z,79.43
2024-05-09T04:39:31.453Z,78.92
2024-05-09T04:40:35.762Z,78.47
2024-05-09T04:41:34.060Z,78.31
2024-05-09T04:42:35.409Z,78.82
2024-05-09T04:43:36.791Z,78.85
2024-05-09T04:44:38.207Z,79.60
2024-05-09T04:45:39.563Z,80.25
2024-05-09T04:46:40.927Z,80.66
2024-05-09T04:47:42.434Z,80.32
2024-05-09T04:48:43.944Z,80.01
2024-05-09T04:49:45.351Z,79.26
2024-05-09T04:50:46.755Z,78.61
2024-05-09T04:51:48.090Z,78.07
2024-05-09T04:52:49.502Z,77.86
2024-05-09T04:53:50.885Z,77.90
2024-05-09T04:54:54.093Z,78.11
2024-05-09T04:55:53.883Z,78.96
2024-05-09T04:56:55.243Z,79.71
2024-05-09T04:57:56.628Z,79.46
2024-05-09T04:58:58.061Z,79.32
2024-05-09T04:59:59.386Z,78.13
2024-05-09T05:01:00.763Z,76.20
2024-05-09T05:02:02.282Z,73.90
2024-05-09T05:03:03.771Z,72.71
2024-05-09T05:04:05.288Z,71.19
2024-05-09T05:05:06.799Z,68.97
2024-05-09T05:06:08.293Z,67.49
2024-05-09T05:07:09.646Z,66.22
2024-05-09T05:08:11.106Z,64.95
2024-05-09T05:09:12.439Z,63.51
2024-05-09T05:10:21.085Z,63.21
2024-05-09T05:11:15.774Z,62.95
2024-05-09T05:12:17.202Z,61.91
2024-05-09T05:13:19.437Z,61.51
2024-05-09T05:14:20.737Z,61.24
2024-05-09T05:15:22.075Z,62.60
2024-05-09T05:16:23.468Z,63.11
2024-05-09T05:17:24.936Z,62.98
2024-05-09T05:18:26.885Z,61.51
2024-05-09T05:19:27.798Z,60.68
2024-05-09T05:20:33.566Z,59.94
2024-05-09T05:21:31.267Z,59.87
2024-05-09T05:22:32.649Z,60.40
2024-05-09T05:23:34.211Z,60.47
2024-05-09T05:24:35.558Z,60.04
2024-05-09T05:25:36.925Z,59.97
2024-05-09T05:26:38.347Z,59.85
2024-05-09T05:27:39.714Z,59.01
2024-05-09T05:28:41.082Z,60.10
2024-05-09T05:29:42.494Z,61.09
2024-05-09T05:30:43.846Z,62.89
2024-05-09T05:31:45.329Z,65.10
2024-05-09T05:32:46.822Z,66.47
2024-05-09T05:33:48.439Z,67.72
2024-05-09T05:34:49.893Z,66.61
2024-05-09T05:35:51.334Z,65.35
2024-05-09T05:36:52.689Z,63.71
2024-05-09T05:37:54.062Z,61.11
2024-05-09T05:38:55.494Z,60.04
2024-05-09T05:39:56.853Z,58.68
2024-05-09T05:40:58.270Z,58.51
2024-05-09T05:41:59.606Z,57.78
2024-05-09T05:43:00.953Z,57.10
2024-05-09T05:44:02.406Z,56.82
2024-05-09T05:45:06.097Z,58.11
2024-05-09T05:46:05.538Z,57.73
2024-05-09T05:47:06.955Z,56.90
2024-05-09T05:48:08.492Z,56.90
2024-05-09T05:49:10.208Z,56.92
2024-05-09T05:50:21.002Z,58.21
2024-05-09T05:51:13.862Z,59.30
2024-05-09T05:52:15.263Z,60.87
2024-05-09T05:53:16.714Z,61.60
2024-05-09T05:54:18.078Z,62.69
2024-05-09T05:55:19.446Z,63.73
2024-05-09T05:56:20.840Z,64.23
2024-05-09T05:57:22.195Z,64.67
2024-05-09T05:58:23.554Z,65.20
2024-05-09T05:59:24.988Z,65.50
2024-05-09T06:00:34.340Z,66.24
2024-05-09T06:01:28.264Z,66.78
2024-05-09T06:02:29.666Z,66.32
2024-05-09T06:03:31.121Z,66.24
2024-05-09T06:04:32.582Z,66.44
2024-05-09T06:05:34.034Z,66.21
2024-05-09T06:06:35.372Z,64.54
2024-05-09T06:07:36.734Z,64.57
2024-05-09T06:08:38.110Z,65.17
2024-05-09T06:09:39.478Z,64.74
2024-05-09T06:10:41.760Z,63.31
2024-05-09T06:11:42.516Z,60.65
2024-05-09T06:12:43.893Z,57.42
2024-05-09T06:13:45.311Z,54.82
2024-05-09T06:14:46.666Z,54.21
2024-05-09T06:15:48.036Z,52.44
2024-05-09T06:16:49.417Z,50.57
2024-05-09T06:17:50.938Z,50.57
2024-05-09T06:18:52.460Z,51.56
2024-05-09T06:19:54.142Z,52.96
2024-05-09T06:20:55.816Z,50.84
2024-05-09T06:21:57.182Z,51.61
2024-05-09T06:22:58.583Z,52.56
2024-05-09T06:24:00.406Z,51.97
2024-05-09T06:25:02.128Z,51.19
2024-05-09T06:26:03.575Z,49.21
2024-05-09T06:27:04.903Z,46.51
2024-05-09T06:28:06.326Z,45.99
2024-05-09T06:30:08.139Z,45.91
2024-05-09T06:31:09.011Z,45.94
2024-05-09T06:32:10.449Z,45.47
2024-05-09T06:33:13.807Z,44.30
2024-05-09T06:34:13.811Z,42.95
2024-05-09T06:35:15.327Z,41.72
2024-05-09T06:36:16.719Z,41.87
2024-05-09T06:37:18.077Z,43.13
2024-05-09T06:38:19.538Z,44.60
2024-05-09T06:39:20.885Z,44.40
2024-05-09T06:40:25.889Z,44.39
2024-05-09T06:41:24.234Z,43.53
2024-05-09T06:42:25.576Z,42.89
2024-05-09T06:43:26.957Z,41.77
2024-05-09T06:44:28.515Z,40.94
2024-05-09T06:45:29.939Z,40.82
2024-05-09T06:46:31.330Z,40.30
2024-05-09T06:47:32.909Z,39.30
2024-05-09T06:48:34.542Z,39.77
2024-05-09T06:49:35.985Z,39.16
2024-05-09T06:50:39.080Z,38.85
2024-05-09T06:51:39.104Z,38.34
2024-05-09T06:52:40.488Z,37.77
2024-05-09T06:53:41.871Z,38.71
2024-05-09T06:54:43.208Z,38.29
2024-05-09T06:55:44.841Z,38.59
2024-05-09T06:56:46.292Z,38.47
2024-05-09T06:57:47.678Z,37.98
2024-05-09T06:58:49.096Z,37.68
2024-05-09T06:59:50.463Z,37.33
2024-05-09T07:00:51.956Z,38.04
2024-05-09T07:01:53.446Z,38.22
2024-05-09T07:02:54.924Z,37.81
2024-05-09T07:03:56.521Z,37.90
2024-05-09T07:04:58.071Z,38.22
2024-05-09T07:05:59.505Z,38.14
2024-05-09T07:07:00.920Z,38.20
2024-05-09T07:08:02.329Z,38.12
2024-05-09T07:09:03.706Z,38.39
2024-05-09T07:10:07.766Z,37.64
2024-05-09T07:11:06.990Z,41.67
2024-05-09T07:12:08.836Z,40.89
2024-05-09T07:13:10.410Z,40.00
2024-05-09T07:14:12.261Z,41.93
2024-05-09T07:15:15.845Z,42.54
2024-05-09T07:16:21.550Z,41.57
2024-05-09T07:18:30.506Z,39.08
2024-05-09T07:19:33.141Z,38.16
2024-05-09T07:20:35.303Z,38.11
2024-05-09T07:21:36.713Z,36.48
2024-05-09T07:22:38.121Z,36.56
2024-05-09T07:23:39.595Z,35.46
2024-05-09T07:24:41.050Z,35.02
2024-05-09T07:25:42.454Z,34.32
2024-05-09T07:26:43.821Z,33.50
2024-05-09T07:27:45.312Z,32.98
2024-05-09T07:28:46.712Z,32.30
2024-05-09T07:29:48.145Z,33.57
2024-05-09T07:30:49.541Z,32.50
2024-05-09T07:31:50.939Z,32.59
2024-05-09T07:32:52.409Z,32.42
2024-05-09T07:33:54.040Z,32.72
2024-05-09T07:34:55.561Z,32.53
2024-05-09T07:35:56.955Z,32.62
2024-05-09T07:36:58.290Z,33.83
2024-05-09T07:37:59.734Z,32.84
2024-05-09T07:39:01.132Z,32.35
2024-05-09T07:40:04.165Z,32.04
2024-05-09T07:41:03.793Z,31.16
2024-05-09T07:42:05.118Z,31.75
2024-05-09T07:43:06.550Z,31.37
2024-05-09T07:44:08.029Z,31.37
2024-05-09T07:45:21.406Z,31.57
2024-05-09T07:47:13.954Z,31.57
2024-05-09T07:50:34.104Z,31.96
2024-05-09T07:53:32.433Z,31.86
2024-05-09T07:53:49.387Z,31.87
2024-05-09T07:54:00.665Z,32.28
2024-05-09T07:54:59.587Z,33.75
2024-05-09T07:56:01.211Z,34.22
2024-05-09T07:57:02.798Z,33.29
2024-05-09T07:58:04.268Z,32.87
2024-05-09T07:59:05.639Z,32.15
2024-05-09T08:00:08.308Z,31.83
2024-05-09T08:01:08.697Z,31.44
2024-05-09T08:02:10.369Z,31.03
2024-05-09T08:03:11.885Z,30.95
2024-05-09T08:04:13.315Z,31.52
2024-05-09T08:05:14.834Z,30.54
2024-05-09T08:06:16.303Z,30.82
2024-05-09T08:07:17.744Z,30.93
2024-05-09T08:08:19.159Z,31.42
2024-05-09T08:09:21.425Z,30.63
2024-05-09T08:10:24.910Z,30.77
2024-05-09T08:11:24.113Z,31.67
2024-05-09T08:12:25.556Z,31.48
2024-05-09T08:13:26.946Z,31.50
2024-05-09T08:14:28.351Z,31.79
2024-05-09T08:15:29.822Z,31.67
2024-05-09T08:16:31.214Z,30.07
2024-05-09T08:17:32.825Z,30.45
2024-05-09T08:18:34.780Z,29.57
2024-05-09T08:19:36.387Z,31.15
2024-05-09T08:20:37.752Z,30.54
2024-05-09T08:21:39.131Z,30.45
2024-05-09T08:22:40.487Z,31.71
2024-05-09T08:23:41.882Z,31.37
2024-05-09T08:24:43.276Z,31.06
2024-05-09T08:25:44.631Z,30.38
2024-05-09T08:26:46.012Z,30.78
2024-05-09T08:27:47.482Z,30.66
2024-05-09T08:28:48.852Z,30.64
2024-05-09T08:29:50.217Z,30.73
2024-05-09T08:30:51.755Z,30.51
2024-05-09T08:31:53.191Z,30.32
2024-05-09T08:32:54.699Z,30.93
2024-05-09T08:33:56.175Z,31.03
2024-05-09T08:34:57.868Z,31.07
2024-05-09T08:35:59.220Z,31.97
2024-05-09T08:37:03.842Z,31.65
2024-05-09T08:38:02.616Z,30.96
2024-05-09T08:39:04.210Z,31.35
2024-05-09T08:40:08.468Z,31.47
2024-05-09T08:41:07.704Z,31.97
2024-05-09T08:42:09.095Z,32.06
2024-05-09T08:43:12.145Z,31.06
2024-05-09T08:44:12.231Z,29.68
2024-05-09T08:45:13.628Z,29.47
2024-05-09T08:46:15.053Z,29.00
2024-05-09T08:47:16.421Z,29.16
2024-05-09T08:48:17.883Z,31.65
2024-05-09T08:49:19.317Z,33.72
2024-05-09T08:50:29.226Z,31.85
2024-05-09T08:51:22.612Z,33.03
2024-05-09T08:52:24.016Z,32.64
2024-05-09T08:53:25.372Z,33.11
2024-05-09T08:54:26.881Z,33.02
2024-05-09T08:55:28.220Z,33.21
2024-05-09T08:56:29.638Z,32.88
2024-05-09T08:57:31.065Z,32.36
2024-05-09T08:58:32.448Z,31.73
2024-05-09T08:59:33.869Z,30.90
2024-05-09T09:00:37.327Z,31.09
2024-05-09T09:01:38.028Z,32.23
2024-05-09T09:02:38.519Z,34.57
2024-05-09T09:03:40.312Z,35.51
2024-05-09T09:04:41.892Z,36.17
2024-05-09T09:05:43.298Z,37.51
2024-05-09T09:06:44.905Z,38.43
2024-05-09T09:07:46.434Z,39.07
2024-05-09T09:08:47.800Z,39.41
2024-05-09T09:09:49.258Z,39.48
2024-05-09T09:10:50.619Z,40.08
2024-05-09T09:11:52.116Z,39.12
2024-05-09T09:12:53.637Z,40.30
2024-05-09T09:13:55.008Z,41.73
2024-05-09T09:14:56.430Z,42.19
2024-05-09T09:15:58.207Z,42.41
2024-05-09T09:16:59.826Z,43.23
2024-05-09T09:18:01.564Z,43.55
2024-05-09T09:20:05.326Z,43.63
2024-05-09T09:21:06.034Z,41.59
2024-05-09T09:22:07.508Z,40.88
2024-05-09T09:23:08.857Z,38.40
2024-05-09T09:24:10.256Z,37.12
2024-05-09T09:25:11.813Z,35.10
2024-05-09T09:26:13.229Z,34.49
2024-05-09T09:27:14.624Z,34.19
2024-05-09T09:28:16.139Z,33.62
2024-05-09T09:29:17.497Z,34.46
2024-05-09T09:30:31.496Z,33.64
2024-05-09T09:31:20.876Z,31.62
2024-05-09T09:32:22.280Z,32.01
2024-05-09T09:33:23.690Z,31.93
2024-05-09T09:34:25.226Z,33.41
2024-05-09T09:35:26.622Z,30.92
2024-05-09T09:36:28.062Z,30.51
2024-05-09T09:37:29.401Z,31.51
2024-05-09T09:38:30.868Z,31.69
2024-05-09T09:39:32.282Z,32.08
2024-05-09T09:40:36.117Z,31.26
2024-05-09T09:41:35.541Z,30.45
2024-05-09T09:42:36.972Z,30.32
2024-05-09T09:43:38.474Z,30.42
2024-05-09T09:44:42.192Z,29.11
2024-05-09T09:45:41.605Z,28.97
2024-05-09T09:46:42.953Z,28.25
2024-05-09T09:47:44.726Z,27.95
2024-05-09T09:48:46.333Z,27.46
2024-05-09T09:49:47.853Z,27.38
2024-05-09T09:50:49.296Z,27.69
2024-05-09T09:51:50.730Z,27.98
2024-05-09T09:52:52.148Z,27.28
2024-05-09T09:53:53.610Z,27.60
2024-05-09T09:54:55.177Z,27.50
2024-05-09T09:55:56.593Z,28.27
2024-05-09T09:56:58.016Z,28.93
2024-05-09T09:57:59.393Z,28.72
2024-05-09T09:59:00.761Z,28.10
2024-05-09T10:00:03.108Z,28.08
2024-05-09T10:01:03.458Z,27.20
2024-05-09T10:02:05.003Z,27.49
2024-05-09T10:03:06.387Z,27.67
2024-05-09T10:04:07.832Z,27.97
2024-05-09T10:05:09.300Z,27.99
2024-05-09T10:06:10.822Z,28.44
2024-05-09T10:07:12.330Z,29.44
2024-05-09T10:08:13.777Z,29.55
2024-05-09T10:09:15.118Z,29.13
2024-05-09T10:10:22.775Z,28.73
2024-05-09T10:11:18.505Z,28.61
2024-05-09T10:12:19.930Z,29.32
2024-05-09T10:13:21.430Z,30.49
2024-05-09T10:14:22.795Z,31.65
2024-05-09T10:15:24.159Z,32.76
2024-05-09T10:16:25.822Z,33.60
2024-05-09T10:17:27.342Z,35.02
2024-05-09T10:18:31.175Z,35.44
2024-05-09T10:19:30.708Z,35.48
2024-05-09T10:20:32.906Z,36.34
2024-05-09T10:21:33.406Z,37.03
2024-05-09T10:22:34.831Z,37.56
2024-05-09T10:23:36.246Z,38.77
2024-05-09T10:24:37.635Z,38.84
2024-05-09T10:25:39.104Z,39.96
2024-05-09T10:26:40.520Z,39.98
2024-05-09T10:27:42.012Z,39.27
2024-05-09T10:28:43.362Z,41.47
2024-05-09T10:29:44.709Z,39.25
2024-05-09T10:30:47.221Z,40.28
2024-05-09T10:31:47.305Z,40.38
2024-05-09T10:32:48.732Z,40.38
2024-05-09T10:33:51.172Z,39.88
2024-05-09T10:34:51.412Z,40.71
2024-05-09T10:35:52.804Z,39.92
2024-05-09T10:36:54.205Z,40.06
2024-05-09T10:37:55.564Z,39.69
2024-05-09T10:38:56.948Z,38.89
2024-05-09T10:39:58.429Z,38.43
2024-05-09T10:40:59.787Z,37.89
2024-05-09T10:42:01.237Z,35.99
2024-05-09T10:43:05.766Z,34.77
2024-05-09T10:44:04.491Z,35.51
2024-05-09T10:45:05.867Z,34.26
2024-05-09T10:46:07.433Z,32.65
2024-05-09T10:47:08.957Z,33.33
2024-05-09T10:48:10.404Z,32.62
2024-05-09T10:49:11.868Z,33.44
2024-05-09T10:50:22.216Z,36.07
2024-05-09T10:51:15.147Z,37.15
2024-05-09T10:52:16.603Z,39.19
2024-05-09T10:53:17.969Z,39.14
2024-05-09T10:54:19.329Z,40.47
2024-05-09T10:55:20.970Z,41.07
2024-05-09T10:56:22.468Z,40.61
2024-05-09T10:57:23.918Z,41.51
2024-05-09T10:58:25.311Z,41.27
2024-05-09T10:59:26.671Z,41.13
2024-05-09T11:00:33.672Z,39.64
2024-05-09T11:01:29.982Z,39.28
2024-05-09T11:02:31.602Z,40.60
2024-05-09T11:03:33.155Z,41.03
2024-05-09T11:04:34.583Z,40.63
2024-05-09T11:05:36.210Z,41.27
2024-05-09T11:06:37.747Z,41.57
2024-05-09T11:07:39.236Z,40.83
2024-05-09T11:08:40.602Z,40.38
2024-05-09T11:09:42.028Z,38.73
2024-05-09T11:10:43.440Z,39.09
2024-05-09T11:11:44.845Z,37.56
2024-05-09T11:12:46.208Z,37.23
2024-05-09T11:13:47.562Z,36.21
2024-05-09T11:14:48.936Z,36.84
2024-05-09T11:15:50.470Z,38.81
2024-05-09T11:16:51.843Z,40.12
2024-05-09T11:17:53.369Z,39.03
2024-05-09T11:18:55.240Z,40.36
2024-05-09T11:19:56.825Z,41.05
2024-05-09T11:20:58.222Z,41.11
2024-05-09T11:21:59.596Z,41.93
2024-05-09T11:23:00.959Z,42.05
2024-05-09T11:24:02.325Z,42.21
2024-05-09T11:25:03.764Z,41.59
2024-05-09T11:26:05.183Z,40.40
2024-05-09T11:27:06.568Z,39.17
2024-05-09T11:28:08.024Z,38.26
2024-05-09T11:29:09.417Z,37.59
2024-05-09T11:30:14.326Z,36.63
2024-05-09T11:31:12.749Z,35.51
2024-05-09T11:32:14.182Z,34.88
2024-05-09T11:33:15.551Z,34.24
2024-05-09T11:34:17.021Z,33.03
2024-05-09T11:35:18.413Z,34.22
2024-05-09T11:36:19.807Z,35.13
2024-05-09T11:37:34.003Z,34.54
2024-05-09T11:39:42.343Z,34.75
2024-05-09T11:40:39.966Z,33.05
2024-05-09T11:41:41.367Z,32.36
2024-05-09T11:42:42.746Z,33.55
2024-05-09T11:43:44.087Z,34.31
2024-05-09T11:44:45.476Z,34.67
2024-05-09T11:45:46.930Z,36.21
2024-05-09T11:46:48.281Z,36.36
2024-05-09T11:47:49.812Z,36.59
2024-05-09T11:48:51.412Z,38.69
2024-05-09T11:49:52.907Z,39.42
2024-05-09T11:50:54.231Z,39.82
2024-05-09T11:51:55.654Z,39.31
2024-05-09T11:52:57.019Z,37.63
2024-05-09T11:53:58.356Z,37.06
2024-05-09T11:54:59.772Z,36.04
2024-05-09T11:56:01.141Z,34.33
2024-05-09T11:57:02.463Z,34.98
2024-05-09T11:58:03.998Z,34.46
2024-05-09T11:59:05.365Z,32.85
2024-05-09T12:00:09.441Z,32.62
2024-05-09T12:01:14.750Z,32.54
2024-05-09T12:02:10.872Z,34.41
2024-05-09T12:03:12.388Z,37.33
2024-05-09T12:04:13.868Z,37.58
2024-05-09T12:05:15.384Z,38.61
2024-05-09T12:06:16.942Z,38.16
2024-05-09T12:07:18.386Z,37.01
2024-05-09T12:08:19.733Z,37.54
2024-05-09T12:09:21.157Z,36.48
2024-05-09T12:10:29.579Z,34.33
2024-05-09T12:11:24.441Z,35.18
2024-05-09T12:12:25.857Z,35.43
2024-05-09T12:13:27.229Z,35.79
2024-05-09T12:14:28.598Z,39.27
2024-05-09T12:15:30.043Z,39.06
2024-05-09T12:17:32.817Z,41.69
2024-05-09T12:18:34.328Z,42.17
2024-05-09T12:19:35.799Z,42.05
2024-05-09T12:20:39.590Z,41.61
2024-05-09T12:21:38.370Z,43.95
2024-05-09T12:22:39.699Z,43.82
2024-05-09T12:23:41.087Z,43.65
2024-05-09T12:24:42.510Z,44.43
2024-05-09T12:25:43.920Z,46.30
2024-05-09T12:26:45.317Z,46.48
2024-05-09T12:27:46.716Z,44.35
2024-05-09T12:28:48.078Z,42.93
2024-05-09T12:29:49.467Z,40.96
2024-05-09T12:30:50.939Z,39.84
2024-05-09T12:31:52.314Z,39.78
2024-05-09T12:32:53.829Z,39.74
2024-05-09T12:33:55.237Z,41.17
2024-05-09T12:34:56.656Z,40.36
2024-05-09T12:35:58.056Z,41.45
2024-05-09T12:36:59.548Z,41.01
2024-05-09T12:38:00.894Z,41.19
2024-05-09T12:39:02.243Z,39.25
2024-05-09T12:40:04.929Z,39.37
2024-05-09T12:41:05.930Z,40.97
2024-05-09T12:42:07.315Z,40.02
2024-05-09T12:43:10.132Z,40.50
2024-05-09T12:44:10.296Z,39.63
2024-05-09T12:45:11.699Z,37.31
2024-05-09T12:46:13.111Z,37.01
2024-05-09T12:47:14.572Z,37.81
2024-05-09T12:48:15.956Z,37.65
2024-05-09T12:49:18.938Z,37.47
2024-05-09T12:50:25.048Z,37.85
2024-05-09T12:51:20.591Z,37.87
2024-05-09T12:52:22.117Z,37.26
2024-05-09T12:53:23.661Z,36.51
2024-05-09T12:54:25.026Z,36.56
2024-05-09T12:55:27.890Z,35.64
2024-05-09T12:56:28.294Z,35.18
2024-05-09T12:57:29.648Z,34.31
2024-05-09T12:58:31.054Z,34.98
2024-05-09T12:59:32.412Z,34.95
2024-05-09T13:00:34.579Z,35.72
2024-05-09T13:01:35.081Z,35.52
2024-05-09T13:02:36.588Z,36.12
2024-05-09T13:03:38.162Z,36.20
2024-05-09T13:04:39.715Z,35.99
2024-05-09T13:05:41.839Z,35.49
2024-05-09T13:06:42.318Z,34.90
2024-05-09T13:07:43.695Z,35.84
2024-05-09T13:08:45.058Z,37.63
2024-05-09T13:09:46.476Z,38.85
2024-05-09T13:10:48.011Z,39.78
2024-05-09T13:11:49.618Z,39.88
2024-05-09T13:12:51.094Z,40.14
2024-05-09T13:13:52.407Z,41.04
2024-05-09T13:14:53.811Z,40.96
2024-05-09T13:15:55.228Z,41.47
2024-05-09T13:16:56.699Z,41.79
2024-05-09T13:18:01.564Z,42.69
2024-05-09T13:18:59.930Z,43.98
2024-05-09T13:20:01.290Z,43.76
2024-05-09T13:21:02.637Z,43.26
2024-05-09T13:22:04.055Z,42.35
2024-05-09T13:23:06.361Z,42.44
2024-05-09T13:24:06.622Z,42.25
2024-05-09T13:25:08.057Z,42.35
2024-05-09T13:26:09.465Z,42.23
2024-05-09T13:27:10.865Z,42.23
2024-05-09T13:28:12.268Z,42.33
2024-05-09T13:29:13.633Z,43.45
2024-05-09T13:30:21.909Z,42.74
2024-05-09T13:31:16.865Z,42.77
2024-05-09T13:32:18.238Z,43.60
2024-05-09T13:33:19.740Z,43.53
2024-05-09T13:34:21.220Z,45.77
2024-05-09T13:35:22.593Z,46.13
2024-05-09T13:36:23.952Z,46.33
2024-05-09T13:37:25.321Z,45.53
2024-05-09T13:38:26.697Z,46.96
2024-05-09T13:39:28.132Z,47.05
2024-05-09T13:40:33.952Z,46.16
2024-05-09T13:41:31.336Z,46.75
2024-05-09T13:42:32.786Z,46.41
2024-05-09T13:43:34.187Z,46.41
2024-05-09T13:44:35.518Z,45.69
2024-05-09T13:45:36.883Z,45.23
2024-05-09T13:46:38.234Z,46.36
2024-05-09T13:47:39.857Z,46.36
2024-05-09T13:48:41.396Z,46.28
2024-05-09T13:49:42.764Z,47.70
2024-05-09T13:50:44.090Z,48.01
2024-05-09T13:51:45.507Z,47.30
2024-05-09T13:52:46.852Z,47.20
2024-05-09T13:53:48.224Z,47.58
2024-05-09T13:54:49.617Z,46.50
2024-05-09T13:55:50.965Z,46.00
2024-05-09T13:56:52.330Z,46.70
2024-05-09T13:57:53.951Z,47.10
2024-05-09T13:58:55.369Z,47.20
2024-05-09T13:59:56.774Z,47.38
2024-05-09T14:00:58.302Z,46.88
2024-05-09T14:01:59.799Z,46.98
2024-05-09T14:03:01.351Z,47.18
2024-05-09T14:04:02.894Z,46.67
2024-05-09T14:05:04.457Z,46.70
2024-05-09T14:06:07.080Z,46.50
2024-05-09T14:07:07.297Z,47.20
2024-05-09T14:08:08.744Z,47.00
2024-05-09T14:09:10.123Z,47.00
2024-05-09T14:10:19.484Z,47.18
2024-05-09T14:11:13.428Z,46.48
2024-05-09T14:12:14.842Z,46.17
2024-05-09T14:13:16.494Z,45.86
2024-05-09T14:14:17.988Z,45.95
2024-05-09T14:15:19.374Z,45.36
2024-05-09T14:16:20.801Z,45.08
2024-05-09T14:17:22.296Z,46.08
2024-05-09T14:18:23.698Z,46.08
2024-05-09T14:19:25.332Z,45.98
2024-05-09T14:20:31.233Z,46.10
2024-05-09T14:21:28.580Z,46.10
2024-05-09T14:22:29.913Z,45.80
2024-05-09T14:23:31.327Z,46.40
2024-05-09T14:24:32.762Z,46.17
2024-05-09T14:25:36.810Z,46.28
2024-05-09T14:26:36.012Z,46.08
2024-05-09T14:27:37.374Z,45.78
2024-05-09T14:28:38.765Z,45.67
2024-05-09T14:29:40.129Z,45.67
2024-05-09T14:30:41.845Z,45.67
2024-05-09T14:31:43.421Z,45.37
2024-05-09T14:32:44.876Z,44.47
2024-05-09T14:33:46.424Z,44.25
2024-05-09T14:34:48.023Z,44.05
2024-05-09T14:35:49.379Z,43.85
2024-05-09T14:36:50.829Z,44.65
2024-05-09T14:37:52.140Z,44.55
2024-05-09T14:38:53.568Z,44.65
2024-05-09T14:39:54.947Z,44.67
2024-05-09T14:40:56.324Z,45.28
2024-05-09T14:41:57.675Z,46.58
2024-05-09T14:43:01.110Z,45.00
2024-05-09T14:44:00.468Z,45.09
2024-05-09T14:45:01.825Z,45.59
2024-05-09T14:46:03.226Z,46.00
2024-05-09T14:47:04.613Z,44.62
2024-05-09T14:48:06.146Z,45.12
2024-05-09T14:49:09.872Z,44.31
2024-05-09T14:50:11.237Z,44.84
2024-05-09T14:51:10.513Z,45.14
2024-05-09T14:52:12.030Z,45.14
2024-05-09T14:53:14.090Z,46.14
2024-05-09T14:54:15.554Z,45.04
2024-05-09T14:55:16.983Z,44.82
2024-05-09T14:56:18.335Z,45.04
2024-05-09T14:57:19.703Z,44.64
2024-05-09T14:58:21.132Z,44.74
2024-05-09T14:59:22.513Z,45.12
2024-05-09T15:00:28.931Z,45.22
2024-05-09T15:01:25.817Z,45.01
2024-05-09T15:02:27.293Z,44.72
2024-05-09T15:03:28.665Z,44.92
2024-05-09T15:04:30.107Z,44.62
2024-05-09T15:05:31.607Z,44.62
2024-05-09T15:06:33.059Z,45.52
2024-05-09T15:07:34.456Z,45.22
2024-05-09T15:08:35.801Z,44.51
2024-05-09T15:09:37.220Z,45.12
2024-05-09T15:10:38.591Z,45.52
2024-05-09T15:11:40.015Z,45.01
2024-05-09T15:12:41.496Z,44.92
2024-05-09T15:13:42.843Z,45.42
2024-05-09T15:14:44.241Z,45.72
2024-05-09T15:15:45.732Z,45.92
2024-05-09T15:16:47.111Z,44.72
2024-05-09T15:17:48.572Z,44.72
2024-05-09T15:18:50.109Z,45.01
2024-05-09T15:19:51.796Z,46.04
2024-05-09T15:20:53.250Z,45.94
2024-05-09T15:21:54.734Z,45.34
2024-05-09T15:22:56.085Z,44.96
2024-05-09T15:23:57.446Z,45.66
2024-05-09T15:24:58.947Z,45.66
2024-05-09T15:26:00.307Z,46.14
2024-05-09T15:27:01.699Z,46.74
2024-05-09T15:28:03.071Z,46.55
2024-05-09T15:29:04.450Z,46.94
2024-05-09T15:30:10.358Z,46.44
2024-05-09T15:31:07.628Z,46.02
2024-05-09T15:32:09.015Z,46.82
2024-05-09T15:33:10.448Z,46.22
2024-05-09T15:34:11.841Z,46.42
2024-05-09T15:35:13.207Z,46.22
2024-05-09T15:36:14.583Z,45.84
2024-05-09T15:37:16.032Z,45.44
2024-05-09T15:38:17.396Z,45.94
2024-05-09T15:39:18.761Z,45.94
2024-05-09T15:40:30.453Z,45.54
2024-05-09T15:41:21.997Z,46.04
2024-05-09T15:42:23.361Z,46.36
2024-05-09T15:43:24.788Z,46.06
2024-05-09T15:44:26.216Z,46.47
2024-05-09T15:45:27.630Z,46.97
2024-05-09T15:46:29.104Z,46.39
2024-05-09T15:47:30.606Z,47.19
2024-05-09T15:48:32.158Z,47.39
2024-05-09T15:49:33.742Z,47.69
2024-05-09T15:50:39.424Z,47.59
2024-05-09T15:51:37.088Z,46.77
2024-05-09T15:52:38.411Z,46.67
2024-05-09T15:53:39.774Z,46.86
2024-05-09T15:54:41.183Z,46.56
2024-05-09T15:55:42.743Z,46.77
2024-05-09T15:56:44.118Z,46.97
2024-05-09T15:57:45.506Z,46.97
2024-05-09T15:58:46.890Z,47.07
2024-05-09T15:59:48.245Z,46.86
2024-05-09T16:00:52.034Z,46.79
2024-05-09T16:01:51.647Z,47.09
2024-05-09T16:02:53.062Z,47.29
2024-05-09T16:03:54.570Z,47.90
2024-05-09T16:04:56.087Z,47.79
2024-05-09T16:05:58.429Z,49.00
2024-05-09T16:06:58.721Z,48.10
2024-05-09T16:08:00.129Z,47.97
2024-05-09T16:09:01.462Z,47.97
2024-05-09T16:10:04.166Z,47.17
2024-05-09T16:11:04.639Z,48.07
2024-05-09T16:12:06.197Z,47.37
2024-05-09T16:13:07.612Z,47.87
2024-05-09T16:14:08.940Z,48.27
2024-05-09T16:15:10.324Z,48.07
2024-05-09T16:16:11.844Z,47.55
2024-05-09T16:17:13.343Z,47.55
2024-05-09T16:18:14.929Z,47.55
2024-05-09T16:19:16.295Z,47.27
2024-05-09T16:20:29.026Z,48.07
2024-05-09T16:21:19.533Z,47.57
2024-05-09T16:22:20.971Z,48.07
2024-05-09T16:23:22.317Z,48.37